首页
METAR-TAF:

METAR-TAF

机场 :

拉纳卡国际机场

拉纳卡, 塞浦路斯

纬度: 34-53N, 经度: 033-38E, 海拔: 2米

当前天气观测

该预报发布于42分钟前的21:00 UTC
风速4节,风向西转西北,在西西北之间变化
温度 20°C
湿度 94%
气压 1014 hPa
能见度10公里或以上
少量云层高于2500英尺, 塔状积云.

METAR: LCLK 212100Z 29004KT 260V320 9999 FEW025TCU 20/19 Q1014 NOSIG

时间: 00:42 (21:42 UTC)

预报

该预报发布于4小时和12分钟前的17:30 UTC
预报有效从21日的 18点(UTC)到 22日的 18点(UTC)
风速6节,风向西北
能见度10公里或以上
少量云层高于2000英尺
成为
从 22日的 08点(UTC)到 22日的 11点(UTC)
风速12节,风向东转东南

TAF: LCLK 211730Z 2118/2218 32006KT 9999 FEW020 BECMG 2208/2211 12012KT

超过4000个机场的气象观测和天气预报(METAR&TAF报告)。

可查询的气象台以黄色和红色小点在地图上表示。

将鼠标移到小点上方,可查看气象台名称。

然后点击查看天气观测和预报。

如需切换地图:点击带黑十字的绿色按钮放大地图;点击带横线的绿色按钮缩小地图;或者点击绿色箭头查看邻近地区的地图。


METAR-TAF: